createdAt,value
2023-01-08T00:02:00.992Z,10.48
2023-01-08T00:07:02.794Z,12.14
2023-01-08T00:12:05.769Z,11.55
2023-01-08T00:17:08.487Z,9.40
2023-01-08T00:22:10.222Z,9.32
2023-01-08T00:27:12.040Z,11.50
2023-01-08T00:32:13.835Z,11.38
2023-01-08T00:37:20.074Z,9.11
2023-01-08T00:42:21.870Z,7.65
2023-01-08T00:47:23.657Z,7.87
2023-01-08T00:52:25.815Z,10.47
2023-01-08T00:57:33.194Z,11.03
2023-01-08T01:02:36.680Z,8.58
2023-01-08T01:07:38.389Z,6.96
2023-01-08T01:12:40.434Z,7.27
2023-01-08T01:17:43.448Z,10.03
2023-01-08T01:22:45.329Z,9.99
2023-01-08T01:27:47.164Z,7.57
2023-01-08T01:32:49.029Z,7.52
2023-01-08T01:37:50.789Z,10.22
2023-01-08T01:42:52.349Z,10.15
2023-01-08T01:47:56.060Z,7.72
2023-01-08T01:53:06.823Z,7.65
2023-01-08T01:58:20.695Z,10.07
2023-01-08T02:03:26.632Z,10.26
2023-01-08T02:08:42.235Z,7.63
2023-01-08T02:13:54.840Z,8.03
2023-01-08T02:19:14.106Z,10.07
2023-01-08T02:24:50.197Z,9.24
2023-01-08T02:29:54.993Z,7.82
2023-01-08T02:34:56.656Z,9.75
2023-01-08T02:40:14.733Z,10.13
2023-01-08T02:45:37.226Z,7.34
2023-01-08T02:50:51.445Z,7.11
2023-01-08T02:55:58.792Z,9.62
2023-01-08T03:01:07.053Z,9.44
2023-01-08T03:06:13.102Z,6.86
2023-01-08T03:11:17.888Z,6.66
2023-01-08T03:16:52.689Z,9.00
2023-01-08T03:21:55.730Z,10.06
2023-01-08T03:27:00.935Z,9.38
2023-01-08T03:32:06.750Z,6.77
2023-01-08T03:37:10.983Z,6.47
2023-01-08T03:42:16.743Z,9.15
2023-01-08T03:47:21.786Z,8.99
2023-01-08T03:52:28.928Z,6.11
2023-01-08T03:57:30.690Z,6.06
2023-01-08T04:02:32.599Z,8.70
2023-01-08T04:07:34.582Z,8.89
2023-01-08T04:12:36.402Z,6.24
2023-01-08T04:17:38.469Z,6.12
2023-01-08T04:22:40.155Z,8.87
2023-01-08T04:27:41.922Z,9.83
2023-01-08T04:32:43.657Z,9.62
2023-01-08T04:37:45.396Z,7.14
2023-01-08T04:42:47.168Z,5.58
2023-01-08T04:47:48.854Z,5.95
2023-01-08T04:52:50.697Z,8.93
2023-01-08T04:57:52.421Z,8.89
2023-01-08T05:02:55.413Z,6.61
2023-01-08T05:07:57.332Z,6.76
2023-01-08T05:13:02.125Z,9.51
2023-01-08T05:18:05.973Z,9.25
2023-01-08T05:23:07.692Z,6.73
2023-01-08T05:28:09.547Z,6.63
2023-01-08T05:33:11.203Z,9.37
2023-01-08T05:38:13.213Z,9.14
2023-01-08T05:43:15.045Z,6.42
2023-01-08T05:48:16.828Z,6.59
2023-01-08T05:53:19.041Z,9.56
2023-01-08T05:58:21.136Z,9.35
2023-01-08T06:03:23.323Z,7.09
2023-01-08T06:08:25.118Z,7.07
2023-01-08T06:13:27.754Z,9.61
2023-01-08T06:18:29.982Z,8.32
2023-01-08T06:23:32.741Z,5.72
2023-01-08T06:28:35.562Z,5.90
2023-01-08T06:33:37.254Z,8.84
2023-01-08T06:38:39.069Z,8.61
2023-01-08T06:43:40.838Z,6.13
2023-01-08T06:48:42.668Z,6.08
2023-01-08T06:53:44.365Z,8.96
2023-01-08T06:58:46.176Z,8.60
2023-01-08T07:03:47.746Z,6.41
2023-01-08T07:08:49.628Z,5.04
2023-01-08T07:13:51.497Z,5.74
2023-01-08T07:18:53.227Z,9.35
2023-01-08T07:23:55.147Z,10.46
2023-01-08T07:28:56.784Z,7.94
2023-01-08T07:33:58.465Z,7.71
2023-01-08T07:39:00.036Z,10.43
2023-01-08T07:44:02.060Z,10.75
2023-01-08T07:49:06.157Z,8.78
2023-01-08T07:54:07.841Z,7.66
2023-01-08T07:59:09.518Z,8.10
2023-01-08T08:04:11.599Z,10.91
2023-01-08T08:09:13.458Z,10.93
2023-01-08T08:14:15.199Z,8.84
2023-01-08T08:19:16.907Z,7.66
2023-01-08T08:24:18.626Z,8.13
2023-01-08T08:29:20.692Z,10.85
2023-01-08T08:34:22.725Z,11.02
2023-01-08T08:39:24.513Z,9.03
2023-01-08T08:44:26.245Z,9.18
2023-01-08T08:49:27.913Z,11.64
2023-01-08T08:54:29.588Z,11.59
2023-01-08T08:59:31.306Z,9.71
2023-01-08T09:04:34.298Z,9.95
2023-01-08T09:09:35.999Z,12.36
2023-01-08T09:14:37.890Z,13.44
2023-01-08T09:19:39.741Z,13.16
2023-01-08T09:24:41.580Z,11.35
2023-01-08T09:30:10.283Z,11.77
2023-01-08T09:35:12.057Z,14.14
2023-01-08T09:40:16.432Z,14.02
2023-01-08T09:45:28.781Z,12.47
2023-01-08T09:50:32.946Z,13.75
2023-01-08T09:55:34.633Z,14.24
2023-01-08T10:00:36.287Z,12.47
2023-01-08T10:05:37.930Z,12.48
2023-01-08T10:10:41.578Z,14.10
2023-01-08T10:15:43.354Z,14.22
2023-01-08T10:20:45.196Z,12.61
2023-01-08T10:25:58.530Z,12.73
2023-01-08T10:31:06.659Z,15.01
2023-01-08T10:36:11.787Z,15.11
2023-01-08T10:41:15.021Z,13.48
2023-01-08T10:46:42.223Z,12.65
2023-01-08T10:51:55.676Z,14.40
2023-01-08T10:56:58.440Z,14.70
2023-01-08T11:02:00.915Z,13.03
2023-01-08T11:07:06.878Z,12.05
2023-01-08T11:12:47.569Z,12.70
2023-01-08T11:17:49.303Z,15.21
2023-01-08T11:22:50.990Z,14.52
2023-01-08T11:27:53.906Z,13.33
2023-01-08T11:33:16.837Z,12.83
2023-01-08T11:38:18.581Z,14.79
2023-01-08T11:43:41.914Z,15.72
2023-01-08T11:49:14.892Z,14.36
2023-01-08T11:54:53.897Z,13.68
2023-01-08T12:00:09.004Z,13.82
2023-01-08T12:05:26.191Z,15.18
2023-01-08T12:10:54.516Z,14.25
2023-01-08T12:16:17.600Z,13.47
2023-01-08T12:21:25.720Z,14.75
2023-01-08T12:26:34.413Z,15.85
2023-01-08T12:32:04.959Z,14.62
2023-01-08T12:37:33.351Z,13.90
2023-01-08T12:42:42.679Z,13.44
2023-01-08T12:47:53.652Z,13.05
2023-01-08T12:53:07.931Z,12.98
2023-01-08T12:58:45.676Z,15.20
2023-01-08T13:03:49.121Z,15.74
2023-01-08T13:08:53.834Z,14.33
2023-01-08T13:14:08.879Z,13.58
2023-01-08T13:19:28.956Z,13.08
2023-01-08T13:24:37.227Z,13.12
2023-01-08T13:29:44.493Z,15.14
2023-01-08T13:34:46.347Z,15.69
2023-01-08T13:39:48.123Z,14.17
2023-01-08T13:44:59.019Z,13.10
2023-01-08T13:50:06.066Z,12.29
2023-01-08T13:55:21.191Z,11.76
2023-01-08T14:00:44.250Z,13.47
2023-01-08T14:05:45.915Z,15.30
2023-01-08T14:10:47.719Z,14.25
2023-01-08T14:15:49.682Z,13.00
2023-01-08T14:20:51.779Z,12.24
2023-01-08T14:25:54.352Z,11.53
2023-01-08T14:30:57.425Z,11.86
2023-01-08T14:36:01.264Z,14.07
2023-01-08T14:41:13.008Z,14.21
2023-01-08T14:46:29.709Z,12.31
2023-01-08T14:51:32.238Z,11.09
2023-01-08T14:56:36.163Z,10.29
2023-01-08T15:01:38.786Z,10.61
2023-01-08T15:06:41.828Z,12.89
2023-01-08T15:12:13.083Z,13.01
2023-01-08T15:17:20.233Z,11.02
2023-01-08T15:22:27.969Z,9.94
2023-01-08T15:27:31.763Z,10.12
2023-01-08T15:32:37.412Z,12.20
2023-01-08T15:37:41.151Z,13.11
2023-01-08T15:43:02.740Z,12.36
2023-01-08T15:48:05.892Z,10.51
2023-01-08T15:53:18.419Z,9.49
2023-01-08T15:58:20.079Z,9.60
2023-01-08T16:03:24.183Z,11.64
2023-01-08T16:08:26.016Z,12.88
2023-01-08T16:13:27.790Z,12.45
2023-01-08T16:18:29.623Z,10.64
2023-01-08T16:23:34.821Z,9.58
2023-01-08T16:28:37.312Z,9.71
2023-01-08T16:33:39.374Z,11.52
2023-01-08T16:38:41.133Z,12.46
2023-01-08T16:43:45.278Z,12.23
2023-01-08T16:48:48.468Z,10.59
2023-01-08T16:53:50.349Z,9.57
2023-01-08T16:58:52.221Z,9.59
2023-01-08T17:03:54.433Z,11.10
2023-01-08T17:08:59.180Z,12.04
2023-01-08T17:14:04.920Z,12.76
2023-01-08T17:19:07.100Z,12.79
2023-01-08T17:24:09.156Z,11.01
2023-01-08T17:29:10.841Z,10.76
2023-01-08T17:34:14.100Z,12.65
2023-01-08T17:39:15.735Z,13.71
2023-01-08T17:44:17.650Z,13.48
2023-01-08T17:49:19.437Z,11.55
2023-01-08T17:54:22.562Z,10.37
2023-01-08T17:59:24.404Z,10.52
2023-01-08T18:04:26.271Z,12.70
2023-01-08T18:09:28.022Z,13.13
2023-01-08T18:14:29.916Z,11.37
2023-01-08T18:19:31.820Z,11.14
2023-01-08T18:24:34.889Z,12.98
2023-01-08T18:29:36.592Z,13.17
2023-01-08T18:34:38.980Z,11.41
2023-01-08T18:39:40.623Z,10.28
2023-01-08T18:44:42.534Z,10.40
2023-01-08T18:49:44.250Z,12.40
2023-01-08T18:54:45.980Z,13.41
2023-01-08T18:59:50.525Z,12.09
2023-01-08T19:04:52.737Z,10.38
2023-01-08T19:09:54.556Z,10.45
2023-01-08T19:14:56.329Z,12.46
2023-01-08T19:19:58.103Z,13.45
2023-01-08T19:25:00.151Z,11.71
2023-01-08T19:30:03.665Z,10.36
2023-01-08T19:35:06.769Z,10.51
2023-01-08T19:40:09.759Z,12.73
2023-01-08T19:45:11.490Z,13.05
2023-01-08T19:50:13.190Z,11.28
2023-01-08T19:55:17.693Z,10.24
2023-01-08T20:00:22.539Z,10.51
2023-01-08T20:05:24.213Z,12.62
2023-01-08T20:10:26.164Z,13.75
2023-01-08T20:15:29.022Z,13.28
2023-01-08T20:20:31.118Z,11.53
2023-01-08T20:25:34.399Z,10.50
2023-01-08T20:30:36.265Z,10.69
2023-01-08T20:35:38.646Z,12.91
2023-01-08T20:40:41.465Z,13.31
2023-01-08T20:45:43.769Z,11.54
2023-01-08T20:50:47.035Z,10.51
2023-01-08T20:55:49.256Z,10.69
2023-01-08T21:00:51.012Z,13.02
2023-01-08T21:05:52.995Z,13.42
2023-01-08T21:11:02.438Z,11.60
2023-01-08T21:16:07.856Z,10.51
2023-01-08T21:21:12.159Z,10.82
2023-01-08T21:26:15.935Z,13.02
2023-01-08T21:31:22.481Z,12.87
2023-01-08T21:36:26.817Z,11.07
2023-01-08T21:41:48.931Z,10.09
2023-01-08T21:46:51.107Z,10.74
2023-01-08T21:52:11.874Z,12.90
2023-01-08T21:57:13.577Z,13.93
2023-01-08T22:02:17.385Z,12.50
2023-01-08T22:07:19.131Z,11.04
2023-01-08T22:12:23.514Z,10.18
2023-01-08T22:17:28.943Z,10.59
2023-01-08T22:22:30.710Z,13.17
2023-01-08T22:27:32.507Z,13.46
2023-01-08T22:32:36.831Z,11.57
2023-01-08T22:37:40.541Z,10.48
2023-01-08T22:42:42.240Z,10.72
2023-01-08T22:47:43.922Z,13.11
2023-01-08T22:52:45.665Z,13.10
2023-01-08T22:57:47.827Z,11.01
2023-01-08T23:02:49.706Z,9.61
2023-01-08T23:07:51.652Z,9.54
2023-01-08T23:12:53.822Z,11.93
2023-01-08T23:17:55.647Z,12.21
2023-01-08T23:22:57.473Z,10.05
2023-01-08T23:27:59.196Z,8.68
2023-01-08T23:33:01.083Z,8.81
2023-01-08T23:38:02.739Z,11.34
2023-01-08T23:43:04.398Z,12.08
2023-01-08T23:48:06.482Z,10.00
2023-01-08T23:53:08.427Z,8.48
2023-01-08T23:58:10.612Z,8.40
